sensor_id;sensor_type;location;lat;lon;timestamp;pressure;altitude;pressure_sealevel;temperature;humidity
13476;BME280;6810;63.824;20.288;2023-07-13T00:00:10;100846.56;;;18.42;55.92
13476;BME280;6810;63.824;20.288;2023-07-13T00:02:57;100872.06;;;18.59;55.92
13476;BME280;6810;63.824;20.288;2023-07-13T00:05:45;100877.91;;;18.64;55.91
13476;BME280;6810;63.824;20.288;2023-07-13T00:08:32;100871.66;;;18.63;56.43
13476;BME280;6810;63.824;20.288;2023-07-13T00:11:19;100863.81;;;18.60;56.80
13476;BME280;6810;63.824;20.288;2023-07-13T00:14:06;100863.56;;;18.63;56.71
13476;BME280;6810;63.824;20.288;2023-07-13T00:16:53;100870.41;;;18.67;56.97
13476;BME280;6810;63.824;20.288;2023-07-13T00:19:40;100873.13;;;18.67;57.38
13476;BME280;6810;63.824;20.288;2023-07-13T00:22:28;100852.34;;;18.68;57.49
13476;BME280;6810;63.824;20.288;2023-07-13T00:25:15;100855.91;;;18.68;57.64
13476;BME280;6810;63.824;20.288;2023-07-13T00:28:02;100861.72;;;18.64;57.19
13476;BME280;6810;63.824;20.288;2023-07-13T00:30:49;100857.97;;;18.55;57.30
13476;BME280;6810;63.824;20.288;2023-07-13T00:33:36;100861.53;;;18.56;58.13
13476;BME280;6810;63.824;20.288;2023-07-13T00:36:23;100861.69;;;18.54;57.67
13476;BME280;6810;63.824;20.288;2023-07-13T00:39:10;100857.56;;;18.50;58.44
13476;BME280;6810;63.824;20.288;2023-07-13T00:41:58;100844.16;;;18.39;58.35
13476;BME280;6810;63.824;20.288;2023-07-13T00:46:19;100855.94;;;18.38;58.35
13476;BME280;6810;63.824;20.288;2023-07-13T00:48:25;100843.94;;;18.31;59.04
13476;BME280;6810;63.824;20.288;2023-07-13T00:51:17;100849.00;;;18.25;58.86
13476;BME280;6810;63.824;20.288;2023-07-13T00:54:08;100811.69;;;18.00;59.20
13476;BME280;6810;63.824;20.288;2023-07-13T00:56:59;100846.00;;;18.18;59.86
13476;BME280;6810;63.824;20.288;2023-07-13T00:59:51;100845.16;;;18.18;59.33
13476;BME280;6810;63.824;20.288;2023-07-13T01:02:41;100848.56;;;18.20;59.49
13476;BME280;6810;63.824;20.288;2023-07-13T01:05:29;100839.63;;;18.19;59.51
13476;BME280;6810;63.824;20.288;2023-07-13T01:08:17;100823.25;;;18.11;59.97
13476;BME280;6810;63.824;20.288;2023-07-13T01:11:04;100844.00;;;18.20;60.48
13476;BME280;6810;63.824;20.288;2023-07-13T01:13:51;100831.19;;;18.13;60.34
13476;BME280;6810;63.824;20.288;2023-07-13T01:16:40;100835.34;;;18.17;59.95
13476;BME280;6810;63.824;20.288;2023-07-13T01:19:44;100831.94;;;18.15;59.75
13476;BME280;6810;63.824;20.288;2023-07-13T01:22:32;100837.31;;;18.15;60.01
13476;BME280;6810;63.824;20.288;2023-07-13T01:25:20;100827.41;;;18.15;60.16
13476;BME280;6810;63.824;20.288;2023-07-13T01:28:08;100808.44;;;18.06;60.55
13476;BME280;6810;63.824;20.288;2023-07-13T01:30:57;100823.25;;;18.11;60.96
13476;BME280;6810;63.824;20.288;2023-07-13T01:33:45;100819.50;;;18.03;61.14
13476;BME280;6810;63.824;20.288;2023-07-13T01:36:32;100821.63;;;17.99;61.02
13476;BME280;6810;63.824;20.288;2023-07-13T01:39:21;100823.63;;;17.97;61.15
13476;BME280;6810;63.824;20.288;2023-07-13T01:42:08;100823.16;;;17.92;61.33
13476;BME280;6810;63.824;20.288;2023-07-13T01:44:55;100822.69;;;17.87;62.10
13476;BME280;6810;63.824;20.288;2023-07-13T01:47:42;100812.31;;;17.83;62.04
13476;BME280;6810;63.824;20.288;2023-07-13T01:50:29;100808.88;;;17.81;61.98
13476;BME280;6810;63.824;20.288;2023-07-13T01:53:16;100796.91;;;17.74;62.26
13476;BME280;6810;63.824;20.288;2023-07-13T01:56:04;100806.28;;;17.70;62.63
13476;BME280;6810;63.824;20.288;2023-07-13T01:58:51;100803.97;;;17.65;62.69
13476;BME280;6810;63.824;20.288;2023-07-13T02:01:28;100803.38;;;17.62;63.93
13476;BME280;6810;63.824;20.288;2023-07-13T02:03:55;100794.94;;;17.55;64.05
13476;BME280;6810;63.824;20.288;2023-07-13T02:06:22;100799.59;;;17.53;63.76
13476;BME280;6810;63.824;20.288;2023-07-13T02:08:49;100789.97;;;17.51;64.82
13476;BME280;6810;63.824;20.288;2023-07-13T02:11:16;100789.22;;;17.49;64.45
13476;BME280;6810;63.824;20.288;2023-07-13T02:13:44;100782.13;;;17.48;64.53
13476;BME280;6810;63.824;20.288;2023-07-13T02:16:11;100794.75;;;17.47;65.12
13476;BME280;6810;63.824;20.288;2023-07-13T02:18:39;100777.38;;;17.40;64.87
13476;BME280;6810;63.824;20.288;2023-07-13T02:21:06;100779.06;;;17.41;64.81
13476;BME280;6810;63.824;20.288;2023-07-13T02:23:34;100787.28;;;17.40;65.22
13476;BME280;6810;63.824;20.288;2023-07-13T02:26:03;100786.72;;;17.36;65.22
13476;BME280;6810;63.824;20.288;2023-07-13T02:28:30;100786.25;;;17.31;65.79
13476;BME280;6810;63.824;20.288;2023-07-13T02:31:07;100781.81;;;17.30;65.31
13476;BME280;6810;63.824;20.288;2023-07-13T02:33:35;100786.50;;;17.28;65.94
13476;BME280;6810;63.824;20.288;2023-07-13T02:36:03;100783.69;;;17.29;65.52
13476;BME280;6810;63.824;20.288;2023-07-13T02:38:33;100785.50;;;17.29;66.13
13476;BME280;6810;63.824;20.288;2023-07-13T02:41:03;100776.13;;;17.23;66.39
13476;BME280;6810;63.824;20.288;2023-07-13T02:43:30;100767.91;;;17.25;66.36
13476;BME280;6810;63.824;20.288;2023-07-13T02:45:59;100781.69;;;17.31;65.95
13476;BME280;6810;63.824;20.288;2023-07-13T02:48:30;100770.81;;;17.33;66.58
13476;BME280;6810;63.824;20.288;2023-07-13T02:50:57;100761.53;;;17.26;66.30
13476;BME280;6810;63.824;20.288;2023-07-13T02:53:25;100770.91;;;17.31;66.90
13476;BME280;6810;63.824;20.288;2023-07-13T02:55:52;100770.19;;;17.29;66.07
13476;BME280;6810;63.824;20.288;2023-07-13T02:58:19;100759.94;;;17.23;66.87
13476;BME280;6810;63.824;20.288;2023-07-13T03:00:47;100770.34;;;17.28;67.36
13476;BME280;6810;63.824;20.288;2023-07-13T03:03:14;100770.47;;;17.26;67.47
13476;BME280;6810;63.824;20.288;2023-07-13T03:05:44;100769.34;;;17.29;67.08
13476;BME280;6810;63.824;20.288;2023-07-13T03:08:12;100775.47;;;17.31;66.92
13476;BME280;6810;63.824;20.288;2023-07-13T03:10:41;100753.78;;;17.33;66.88
13476;BME280;6810;63.824;20.288;2023-07-13T03:13:10;100770.53;;;17.36;66.98
13476;BME280;6810;63.824;20.288;2023-07-13T03:15:37;100765.16;;;17.36;67.63
13476;BME280;6810;63.824;20.288;2023-07-13T03:18:04;100763.41;;;17.35;67.54
13476;BME280;6810;63.824;20.288;2023-07-13T03:20:33;100761.59;;;17.36;67.65
13476;BME280;6810;63.824;20.288;2023-07-13T03:23:01;100756.06;;;17.37;67.96
13476;BME280;6810;63.824;20.288;2023-07-13T03:25:28;100761.19;;;17.40;68.17
13476;BME280;6810;63.824;20.288;2023-07-13T03:27:55;100747.84;;;17.39;68.20
13476;BME280;6810;63.824;20.288;2023-07-13T03:30:22;100744.66;;;17.45;67.71
13476;BME280;6810;63.824;20.288;2023-07-13T03:32:49;100746.09;;;17.49;67.42
13476;BME280;6810;63.824;20.288;2023-07-13T03:35:18;100739.34;;;17.54;67.61
13476;BME280;6810;63.824;20.288;2023-07-13T03:37:45;100741.63;;;17.59;68.25
13476;BME280;6810;63.824;20.288;2023-07-13T03:40:17;100722.75;;;17.59;67.80
13476;BME280;6810;63.824;20.288;2023-07-13T03:42:45;100731.88;;;17.67;68.08
13476;BME280;6810;63.824;20.288;2023-07-13T03:45:15;100715.84;;;17.66;67.78
13476;BME280;6810;63.824;20.288;2023-07-13T03:47:42;100731.19;;;17.75;68.31
13476;BME280;6810;63.824;20.288;2023-07-13T03:50:10;100725.53;;;17.78;67.78
13476;BME280;6810;63.824;20.288;2023-07-13T03:52:39;100728.84;;;17.81;68.04
13476;BME280;6810;63.824;20.288;2023-07-13T03:55:06;100719.03;;;17.80;68.29
13476;BME280;6810;63.824;20.288;2023-07-13T03:57:33;100715.66;;;17.88;68.50
13476;BME280;6810;63.824;20.288;2023-07-13T04:00:05;100722.34;;;17.93;68.72
13476;BME280;6810;63.824;20.288;2023-07-13T04:02:41;100711.28;;;17.96;67.88
13476;BME280;6810;63.824;20.288;2023-07-13T04:05:09;100717.00;;;18.03;67.94
13476;BME280;6810;63.824;20.288;2023-07-13T04:07:35;100710.59;;;18.04;68.07
13476;BME280;6810;63.824;20.288;2023-07-13T04:10:03;100716.31;;;18.10;68.49
13476;BME280;6810;63.824;20.288;2023-07-13T04:12:30;100715.91;;;18.15;68.29
13476;BME280;6810;63.824;20.288;2023-07-13T04:14:57;100706.53;;;18.19;68.52
13476;BME280;6810;63.824;20.288;2023-07-13T04:17:24;100720.34;;;18.25;68.52
13476;BME280;6810;63.824;20.288;2023-07-13T04:19:51;100716.38;;;18.29;67.64
13476;BME280;6810;63.824;20.288;2023-07-13T04:22:18;100727.72;;;18.33;67.61
13476;BME280;6810;63.824;20.288;2023-07-13T04:24:45;100721.94;;;18.37;67.82
13476;BME280;6810;63.824;20.288;2023-07-13T04:27:12;100725.97;;;18.43;67.89
13476;BME280;6810;63.824;20.288;2023-07-13T04:29:40;100727.53;;;18.45;67.99
13476;BME280;6810;63.824;20.288;2023-07-13T04:32:07;100724.41;;;18.50;67.27
13476;BME280;6810;63.824;20.288;2023-07-13T04:34:35;100723.97;;;18.54;67.56
13476;BME280;6810;63.824;20.288;2023-07-13T04:37:02;100727.13;;;18.59;67.79
13476;BME280;6810;63.824;20.288;2023-07-13T04:39:29;100727.56;;;18.64;67.81
13476;BME280;6810;63.824;20.288;2023-07-13T04:41:57;100730.81;;;18.68;67.90
13476;BME280;6810;63.824;20.288;2023-07-13T04:44:24;100733.09;;;18.72;67.27
13476;BME280;6810;63.824;20.288;2023-07-13T04:46:50;100721.16;;;18.75;67.11
13476;BME280;6810;63.824;20.288;2023-07-13T04:49:18;100728.84;;;18.79;67.19
13476;BME280;6810;63.824;20.288;2023-07-13T04:51:44;100731.13;;;18.84;67.22
13476;BME280;6810;63.824;20.288;2023-07-13T04:54:11;100730.84;;;18.87;67.21
13476;BME280;6810;63.824;20.288;2023-07-13T04:56:39;100724.72;;;18.94;67.07
13476;BME280;6810;63.824;20.288;2023-07-13T04:59:06;100719.91;;;18.98;67.29
13476;BME280;6810;63.824;20.288;2023-07-13T05:01:33;100720.31;;;19.03;67.50
13476;BME280;6810;63.824;20.288;2023-07-13T05:04:01;100715.34;;;19.08;67.06
13476;BME280;6810;63.824;20.288;2023-07-13T05:06:28;100708.63;;;19.12;67.38
13476;BME280;6810;63.824;20.288;2023-07-13T05:08:55;100711.75;;;19.17;66.73
13476;BME280;6810;63.824;20.288;2023-07-13T05:11:22;100713.03;;;19.23;66.69
13476;BME280;6810;63.824;20.288;2023-07-13T05:13:49;100708.19;;;19.26;67.40
13476;BME280;6810;63.824;20.288;2023-07-13T05:16:16;100700.69;;;19.30;66.83
13476;BME280;6810;63.824;20.288;2023-07-13T05:18:43;100708.06;;;19.37;67.33
13476;BME280;6810;63.824;20.288;2023-07-13T05:21:11;100702.06;;;19.43;67.08
13476;BME280;6810;63.824;20.288;2023-07-13T05:23:39;100705.19;;;19.48;66.86
13476;BME280;6810;63.824;20.288;2023-07-13T05:26:09;100678.75;;;19.42;66.91
13476;BME280;6810;63.824;20.288;2023-07-13T05:28:37;100695.06;;;19.60;66.59
13476;BME280;6810;63.824;20.288;2023-07-13T05:31:06;100703.44;;;19.66;67.00
13476;BME280;6810;63.824;20.288;2023-07-13T05:33:34;100695.75;;;19.71;66.43
13476;BME280;6810;63.824;20.288;2023-07-13T05:36:01;100664.16;;;19.62;66.41
13476;BME280;6810;63.824;20.288;2023-07-13T05:38:28;100692.81;;;19.82;66.39
13476;BME280;6810;63.824;20.288;2023-07-13T05:40:57;100681.41;;;19.88;65.92
13476;BME280;6810;63.824;20.288;2023-07-13T05:43:24;100684.53;;;19.93;66.33
13476;BME280;6810;63.824;20.288;2023-07-13T05:45:56;100676.97;;;19.97;65.83
13476;BME280;6810;63.824;20.288;2023-07-13T05:48:23;100678.06;;;20.04;65.96
13476;BME280;6810;63.824;20.288;2023-07-13T05:50:50;100676.78;;;20.08;65.63
13476;BME280;6810;63.824;20.288;2023-07-13T05:53:17;100680.28;;;20.18;65.80
13476;BME280;6810;63.824;20.288;2023-07-13T05:55:46;100672.44;;;20.24;65.33
13476;BME280;6810;63.824;20.288;2023-07-13T05:58:14;100673.66;;;20.30;65.05
13476;BME280;6810;63.824;20.288;2023-07-13T06:00:41;100668.66;;;20.35;65.23
13476;BME280;6810;63.824;20.288;2023-07-13T06:03:08;100672.59;;;20.40;65.21
13476;BME280;6810;63.824;20.288;2023-07-13T06:05:36;100675.53;;;20.47;65.23
13476;BME280;6810;63.824;20.288;2023-07-13T06:08:07;100667.66;;;20.53;64.23
13476;BME280;6810;63.824;20.288;2023-07-13T06:10:35;100658.53;;;20.54;64.13
13476;BME280;6810;63.824;20.288;2023-07-13T06:13:02;100666.41;;;20.66;63.73
13476;BME280;6810;63.824;20.288;2023-07-13T06:15:30;100664.94;;;20.71;63.72
13476;BME280;6810;63.824;20.288;2023-07-13T06:17:57;100668.91;;;20.77;63.42
13476;BME280;6810;63.824;20.288;2023-07-13T06:20:24;100662.88;;;20.83;63.21
13476;BME280;6810;63.824;20.288;2023-07-13T06:22:51;100672.91;;;20.90;63.14
13476;BME280;6810;63.824;20.288;2023-07-13T06:25:18;100666.91;;;20.96;63.25
13476;BME280;6810;63.824;20.288;2023-07-13T06:27:45;100650.75;;;20.95;63.12
13476;BME280;6810;63.824;20.288;2023-07-13T06:30:13;100661.91;;;21.09;62.60
13476;BME280;6810;63.824;20.288;2023-07-13T06:32:40;100669.41;;;21.15;62.45
13476;BME280;6810;63.824;20.288;2023-07-13T06:35:08;100666.94;;;21.22;61.66
13476;BME280;6810;63.824;20.288;2023-07-13T06:37:35;100663.56;;;21.28;61.47
13476;BME280;6810;63.824;20.288;2023-07-13T06:40:02;100658.84;;;21.30;61.17
13476;BME280;6810;63.824;20.288;2023-07-13T06:42:30;100669.78;;;21.38;61.23
13476;BME280;6810;63.824;20.288;2023-07-13T06:44:57;100660.28;;;21.42;61.06
13476;BME280;6810;63.824;20.288;2023-07-13T06:47:24;100657.97;;;21.47;60.63
13476;BME280;6810;63.824;20.288;2023-07-13T06:49:51;100658.84;;;21.55;60.98
13476;BME280;6810;63.824;20.288;2023-07-13T06:52:19;100662.63;;;21.62;60.51
13476;BME280;6810;63.824;20.288;2023-07-13T06:54:46;100659.09;;;21.70;60.24
13476;BME280;6810;63.824;20.288;2023-07-13T06:57:13;100656.78;;;21.75;60.05
13476;BME280;6810;63.824;20.288;2023-07-13T06:59:40;100646.44;;;21.78;59.80
13476;BME280;6810;63.824;20.288;2023-07-13T07:02:09;100647.34;;;21.87;60.29
13476;BME280;6810;63.824;20.288;2023-07-13T07:04:37;100649.75;;;21.90;60.43
13476;BME280;6810;63.824;20.288;2023-07-13T07:07:04;100648.91;;;21.97;59.26
13476;BME280;6810;63.824;20.288;2023-07-13T07:09:31;100653.69;;;22.03;59.21
13476;BME280;6810;63.824;20.288;2023-07-13T07:11:58;100642.34;;;22.08;58.48
13476;BME280;6810;63.824;20.288;2023-07-13T07:14:30;100651.50;;;22.15;57.67
13476;BME280;6810;63.824;20.288;2023-07-13T07:16:57;100641.19;;;22.18;57.86
13476;BME280;6810;63.824;20.288;2023-07-13T07:19:27;100634.22;;;22.24;56.39
13476;BME280;6810;63.824;20.288;2023-07-13T07:21:54;100643.59;;;22.30;55.92
13476;BME280;6810;63.824;20.288;2023-07-13T07:24:21;100642.22;;;22.34;55.64
13476;BME280;6810;63.824;20.288;2023-07-13T07:26:49;100640.69;;;22.39;54.99
13476;BME280;6810;63.824;20.288;2023-07-13T07:29:18;100641.22;;;22.43;55.31
13476;BME280;6810;63.824;20.288;2023-07-13T07:31:48;100640.56;;;22.49;55.85
13476;BME280;6810;63.824;20.288;2023-07-13T07:34:31;100635.50;;;22.54;55.35
13476;BME280;6810;63.824;20.288;2023-07-13T07:37:02;100635.88;;;22.59;55.39
13476;BME280;6810;63.824;20.288;2023-07-13T07:39:32;100640.81;;;22.63;55.24
13476;BME280;6810;63.824;20.288;2023-07-13T07:41:59;100635.03;;;22.66;55.43
13476;BME280;6810;63.824;20.288;2023-07-13T07:44:26;100644.53;;;22.70;54.71
13476;BME280;6810;63.824;20.288;2023-07-13T07:46:54;100631.81;;;22.71;54.79
13476;BME280;6810;63.824;20.288;2023-07-13T07:49:21;100646.41;;;22.78;54.89
13476;BME280;6810;63.824;20.288;2023-07-13T07:51:48;100659.47;;;22.82;54.36
13476;BME280;6810;63.824;20.288;2023-07-13T07:54:15;100641.31;;;22.83;54.30
13476;BME280;6810;63.824;20.288;2023-07-13T07:57:03;100614.63;;;22.70;54.03
13476;BME280;6810;63.824;20.288;2023-07-13T07:59:33;100648.63;;;22.90;53.78
13476;BME280;6810;63.824;20.288;2023-07-13T08:02:03;100642.66;;;22.95;52.68
13476;BME280;6810;63.824;20.288;2023-07-13T08:04:33;100645.22;;;22.96;52.31
13476;BME280;6810;63.824;20.288;2023-07-13T08:07:03;100648.63;;;22.98;52.12
13476;BME280;6810;63.824;20.288;2023-07-13T08:09:32;100647.59;;;22.99;50.94
13476;BME280;6810;63.824;20.288;2023-07-13T08:11:59;100636.03;;;22.97;50.74
13476;BME280;6810;63.824;20.288;2023-07-13T08:14:29;100645.41;;;23.03;50.37
13476;BME280;6810;63.824;20.288;2023-07-13T08:17:16;100638.94;;;23.04;49.73
13476;BME280;6810;63.824;20.288;2023-07-13T08:19:43;100646.06;;;23.05;49.45
13476;BME280;6810;63.824;20.288;2023-07-13T08:22:10;100645.41;;;23.11;48.61
13476;BME280;6810;63.824;20.288;2023-07-13T08:24:38;100641.31;;;23.15;48.22
13476;BME280;6810;63.824;20.288;2023-07-13T08:27:05;100636.56;;;23.17;49.05
13476;BME280;6810;63.824;20.288;2023-07-13T08:29:32;100640.78;;;23.19;48.68
13476;BME280;6810;63.824;20.288;2023-07-13T08:31:59;100640.25;;;23.24;48.16
13476;BME280;6810;63.824;20.288;2023-07-13T08:34:27;100634.81;;;23.24;48.77
13476;BME280;6810;63.824;20.288;2023-07-13T08:36:54;100618.50;;;23.24;48.46
13476;BME280;6810;63.824;20.288;2023-07-13T08:39:21;100631.63;;;23.36;48.47
13476;BME280;6810;63.824;20.288;2023-07-13T08:41:53;100622.06;;;23.40;47.62
13476;BME280;6810;63.824;20.288;2023-07-13T08:44:36;100620.53;;;23.46;46.79
13476;BME280;6810;63.824;20.288;2023-07-13T08:47:09;100622.75;;;23.50;45.52
13476;BME280;6810;63.824;20.288;2023-07-13T08:49:38;100625.13;;;23.53;45.36
13476;BME280;6810;63.824;20.288;2023-07-13T08:52:13;100615.38;;;23.59;45.90
13476;BME280;6810;63.824;20.288;2023-07-13T08:54:47;100626.44;;;23.65;45.86
13476;BME280;6810;63.824;20.288;2023-07-13T08:57:19;100614.84;;;23.71;46.31
13476;BME280;6810;63.824;20.288;2023-07-13T08:59:47;100604.47;;;23.67;46.32
13476;BME280;6810;63.824;20.288;2023-07-13T09:04:50;100623.59;;;23.89;45.94
13476;BME280;6810;63.824;20.288;2023-07-13T09:10:43;100606.38;;;24.05;44.98
13476;BME280;6810;63.824;20.288;2023-07-13T09:13:20;100609.41;;;24.10;42.94
13476;BME280;6810;63.824;20.288;2023-07-13T09:15:51;100602.75;;;24.13;43.75
13476;BME280;6810;63.824;20.288;2023-07-13T09:18:35;100604.41;;;24.22;42.68
13476;BME280;6810;63.824;20.288;2023-07-13T09:21:10;100598.91;;;24.30;42.20
13476;BME280;6810;63.824;20.288;2023-07-13T09:23:40;100602.78;;;24.35;42.70
13476;BME280;6810;63.824;20.288;2023-07-13T09:26:19;100608.38;;;24.42;41.83
13476;BME280;6810;63.824;20.288;2023-07-13T09:28:50;100556.50;;;24.27;41.10
13476;BME280;6810;63.824;20.288;2023-07-13T09:31:49;100593.66;;;24.51;40.68
13476;BME280;6810;63.824;20.288;2023-07-13T09:34:19;100596.13;;;24.60;39.09
13476;BME280;6810;63.824;20.288;2023-07-13T09:36:47;100599.00;;;24.67;39.46
13476;BME280;6810;63.824;20.288;2023-07-13T09:39:25;100590.75;;;24.75;39.22
13476;BME280;6810;63.824;20.288;2023-07-13T09:42:07;100591.72;;;24.82;38.78
13476;BME280;6810;63.824;20.288;2023-07-13T09:44:51;100586.19;;;24.90;38.25
13476;BME280;6810;63.824;20.288;2023-07-13T09:47:24;100584.63;;;24.95;37.94
13476;BME280;6810;63.824;20.288;2023-07-13T09:50:06;100580.09;;;25.02;37.24
13476;BME280;6810;63.824;20.288;2023-07-13T09:55:37;100579.84;;;25.85;37.33
13476;BME280;6810;63.824;20.288;2023-07-13T09:58:19;100574.22;;;26.57;35.56
13476;BME280;6810;63.824;20.288;2023-07-13T10:01:03;100580.25;;;27.23;34.63
13476;BME280;6810;63.824;20.288;2023-07-13T10:03:36;100580.16;;;27.65;34.03
13476;BME280;6810;63.824;20.288;2023-07-13T10:06:17;100571.88;;;27.99;33.09
13476;BME280;6810;63.824;20.288;2023-07-13T10:08:46;100572.81;;;28.19;33.03
13476;BME280;6810;63.824;20.288;2023-07-13T10:11:26;100564.41;;;28.27;32.70
13476;BME280;6810;63.824;20.288;2023-07-13T10:14:11;100570.97;;;28.45;32.11
13476;BME280;6810;63.824;20.288;2023-07-13T10:16:41;100569.56;;;28.56;32.28
13476;BME280;6810;63.824;20.288;2023-07-13T10:19:12;100576.94;;;28.62;32.06
13476;BME280;6810;63.824;20.288;2023-07-13T10:22:03;100559.84;;;28.60;32.14
13476;BME280;6810;63.824;20.288;2023-07-13T10:24:38;100580.53;;;28.69;31.41
13476;BME280;6810;63.824;20.288;2023-07-13T10:27:23;100576.75;;;28.70;31.34
13476;BME280;6810;63.824;20.288;2023-07-13T10:30:43;100577.56;;;28.70;31.10
13476;BME280;6810;63.824;20.288;2023-07-13T10:32:50;100581.81;;;28.73;30.66
13476;BME280;6810;63.824;20.288;2023-07-13T10:35:19;100574.19;;;28.75;31.22
13476;BME280;6810;63.824;20.288;2023-07-13T10:38:05;100567.03;;;28.74;30.86
13476;BME280;6810;63.824;20.288;2023-07-13T10:40:43;100565.75;;;28.77;30.82
13476;BME280;6810;63.824;20.288;2023-07-13T10:43:20;100558.81;;;28.81;30.72
13476;BME280;6810;63.824;20.288;2023-07-13T10:45:50;100552.91;;;28.90;30.37
13476;BME280;6810;63.824;20.288;2023-07-13T10:48:18;100564.72;;;28.97;29.71
13476;BME280;6810;63.824;20.288;2023-07-13T10:50:49;100562.41;;;29.01;29.96
13476;BME280;6810;63.824;20.288;2023-07-13T10:53:29;100557.97;;;29.06;29.68
13476;BME280;6810;63.824;20.288;2023-07-13T10:56:02;100558.16;;;29.05;30.67
13476;BME280;6810;63.824;20.288;2023-07-13T10:58:37;100558.59;;;29.02;29.73
13476;BME280;6810;63.824;20.288;2023-07-13T11:03:38;100563.22;;;29.01;30.49
13476;BME280;6810;63.824;20.288;2023-07-13T11:09:18;100557.56;;;29.09;30.25
13476;BME280;6810;63.824;20.288;2023-07-13T11:11:46;100557.56;;;29.09;29.49
13476;BME280;6810;63.824;20.288;2023-07-13T11:14:32;100540.44;;;29.01;29.80
13476;BME280;6810;63.824;20.288;2023-07-13T11:19:51;100573.19;;;29.22;28.68
13476;BME280;6810;63.824;20.288;2023-07-13T11:22:50;100573.41;;;29.20;29.02
13476;BME280;6810;63.824;20.288;2023-07-13T11:25:27;100563.03;;;29.09;30.07
13476;BME280;6810;63.824;20.288;2023-07-13T11:30:48;100575.69;;;28.84;30.22
13476;BME280;6810;63.824;20.288;2023-07-13T11:33:17;100569.34;;;28.70;30.18
13476;BME280;6810;63.824;20.288;2023-07-13T11:36:06;100576.94;;;28.55;31.28
13476;BME280;6810;63.824;20.288;2023-07-13T11:41:16;100551.91;;;28.11;32.78
13476;BME280;6810;63.824;20.288;2023-07-13T11:43:44;100581.63;;;28.01;33.76
13476;BME280;6810;63.824;20.288;2023-07-13T11:46:23;100563.72;;;27.65;33.94
13476;BME280;6810;63.824;20.288;2023-07-13T11:48:52;100576.25;;;27.53;34.44
13476;BME280;6810;63.824;20.288;2023-07-13T11:51:25;100573.25;;;27.41;34.42
13476;BME280;6810;63.824;20.288;2023-07-13T11:53:54;100570.66;;;27.33;34.07
13476;BME280;6810;63.824;20.288;2023-07-13T11:56:25;100578.00;;;27.26;34.01
13476;BME280;6810;63.824;20.288;2023-07-13T11:58:54;100578.53;;;27.15;35.12
13476;BME280;6810;63.824;20.288;2023-07-13T12:01:24;100570.44;;;27.07;35.07
13476;BME280;6810;63.824;20.288;2023-07-13T12:03:53;100573.38;;;26.99;34.73
13476;BME280;6810;63.824;20.288;2023-07-13T12:06:47;100567.75;;;26.86;34.84
13476;BME280;6810;63.824;20.288;2023-07-13T12:09:19;100573.16;;;26.79;35.34
13476;BME280;6810;63.824;20.288;2023-07-13T12:11:51;100578.41;;;26.74;35.74
13476;BME280;6810;63.824;20.288;2023-07-13T12:14:19;100571.22;;;26.73;35.86
13476;BME280;6810;63.824;20.288;2023-07-13T12:16:46;100576.69;;;26.73;36.55
13476;BME280;6810;63.824;20.288;2023-07-13T12:19:25;100571.00;;;26.68;36.87
13476;BME280;6810;63.824;20.288;2023-07-13T12:21:57;100553.72;;;26.47;37.41
13476;BME280;6810;63.824;20.288;2023-07-13T12:24:26;100578.50;;;26.45;37.47
13476;BME280;6810;63.824;20.288;2023-07-13T12:27:00;100571.00;;;26.33;38.10
13476;BME280;6810;63.824;20.288;2023-07-13T12:29:36;100574.06;;;26.23;38.60
13476;BME280;6810;63.824;20.288;2023-07-13T12:32:08;100566.63;;;26.17;38.60
13476;BME280;6810;63.824;20.288;2023-07-13T12:34:53;100567.69;;;26.16;38.23
13476;BME280;6810;63.824;20.288;2023-07-13T12:37:22;100555.75;;;26.03;38.77
13476;BME280;6810;63.824;20.288;2023-07-13T12:39:49;100574.56;;;26.12;38.42
13476;BME280;6810;63.824;20.288;2023-07-13T12:42:23;100567.78;;;26.08;38.37
13476;BME280;6810;63.824;20.288;2023-07-13T12:45:18;100574.03;;;26.02;38.73
13476;BME280;6810;63.824;20.288;2023-07-13T12:47:54;100572.41;;;25.93;39.18
13476;BME280;6810;63.824;20.288;2023-07-13T12:50:23;100565.38;;;25.84;39.04
13476;BME280;6810;63.824;20.288;2023-07-13T12:52:55;100575.63;;;25.82;39.17
13476;BME280;6810;63.824;20.288;2023-07-13T12:55:24;100574.97;;;25.80;38.77
13476;BME280;6810;63.824;20.288;2023-07-13T12:57:57;100570.06;;;25.76;39.47
13476;BME280;6810;63.824;20.288;2023-07-13T13:00:35;100566.91;;;25.72;39.68
13476;BME280;6810;63.824;20.288;2023-07-13T13:05:57;100568.09;;;25.70;40.53
13476;BME280;6810;63.824;20.288;2023-07-13T13:08:26;100572.94;;;25.68;40.63
13476;BME280;6810;63.824;20.288;2023-07-13T13:10:53;100567.19;;;25.63;41.20
13476;BME280;6810;63.824;20.288;2023-07-13T13:13:21;100561.06;;;25.61;41.26
13476;BME280;6810;63.824;20.288;2023-07-13T13:15:48;100568.78;;;25.57;42.28
13476;BME280;6810;63.824;20.288;2023-07-13T13:18:19;100557.59;;;25.52;42.22
13476;BME280;6810;63.824;20.288;2023-07-13T13:20:48;100564.06;;;25.51;43.02
13476;BME280;6810;63.824;20.288;2023-07-13T13:23:17;100559.94;;;25.55;43.44
13476;BME280;6810;63.824;20.288;2023-07-13T13:25:46;100555.69;;;25.67;42.90
13476;BME280;6810;63.824;20.288;2023-07-13T13:28:19;100551.16;;;25.74;43.13
13476;BME280;6810;63.824;20.288;2023-07-13T13:30:50;100555.06;;;25.86;42.59
13476;BME280;6810;63.824;20.288;2023-07-13T13:33:19;100552.44;;;25.93;42.49
13476;BME280;6810;63.824;20.288;2023-07-13T13:35:46;100534.47;;;25.84;41.75
13476;BME280;6810;63.824;20.288;2023-07-13T13:38:15;100551.13;;;26.03;42.07
13476;BME280;6810;63.824;20.288;2023-07-13T13:40:44;100550.53;;;26.08;41.80
13476;BME280;6810;63.824;20.288;2023-07-13T13:43:22;100551.00;;;26.11;42.65
13476;BME280;6810;63.824;20.288;2023-07-13T13:45:57;100540.47;;;26.08;42.84